sensor_id;sensor_type;location;lat;lon;timestamp;P1;durP1;ratioP1;P2;durP2;ratioP2
26191;SDS011;13935;55.672;37.764;2023-11-18T00:00:29;7.15;;;3.47;;
26191;SDS011;13935;55.672;37.764;2023-11-18T00:01:41;7.35;;;3.30;;
26191;SDS011;13935;55.672;37.764;2023-11-18T00:02:54;11.10;;;3.42;;
26191;SDS011;13935;55.672;37.764;2023-11-18T00:04:10;9.30;;;3.22;;
26191;SDS011;13935;55.672;37.764;2023-11-18T00:05:33;9.50;;;3.45;;
26191;SDS011;13935;55.672;37.764;2023-11-18T00:06:40;10.10;;;3.13;;
26191;SDS011;13935;55.672;37.764;2023-11-18T00:08:15;8.70;;;3.80;;
26191;SDS011;13935;55.672;37.764;2023-11-18T00:09:30;11.60;;;3.28;;
26191;SDS011;13935;55.672;37.764;2023-11-18T00:10:42;12.38;;;3.75;;
26191;SDS011;13935;55.672;37.764;2023-11-18T00:11:49;10.60;;;3.25;;
26191;SDS011;13935;55.672;37.764;2023-11-18T00:13:12;10.95;;;3.28;;
26191;SDS011;13935;55.672;37.764;2023-11-18T00:14:21;10.65;;;3.75;;
26191;SDS011;13935;55.672;37.764;2023-11-18T00:15:37;10.00;;;3.55;;
26191;SDS011;13935;55.672;37.764;2023-11-18T00:16:48;9.98;;;3.67;;
26191;SDS011;13935;55.672;37.764;2023-11-18T00:17:58;9.57;;;3.58;;
26191;SDS011;13935;55.672;37.764;2023-11-18T00:19:09;10.73;;;3.40;;
26191;SDS011;13935;55.672;37.764;2023-11-18T00:20:20;11.45;;;3.60;;
26191;SDS011;13935;55.672;37.764;2023-11-18T00:21:33;10.55;;;3.50;;
26191;SDS011;13935;55.672;37.764;2023-11-18T00:22:53;9.30;;;3.58;;
26191;SDS011;13935;55.672;37.764;2023-11-18T00:24:55;12.68;;;4.00;;
26191;SDS011;13935;55.672;37.764;2023-11-18T00:26:20;9.65;;;3.58;;
26191;SDS011;13935;55.672;37.764;2023-11-18T00:28:02;10.65;;;3.40;;
26191;SDS011;13935;55.672;37.764;2023-11-18T00:29:22;15.00;;;4.47;;
26191;SDS011;13935;55.672;37.764;2023-11-18T00:30:53;11.60;;;4.20;;
26191;SDS011;13935;55.672;37.764;2023-11-18T00:33:55;8.13;;;3.50;;
26191;SDS011;13935;55.672;37.764;2023-11-18T00:35:14;10.70;;;4.00;;
26191;SDS011;13935;55.672;37.764;2023-11-18T00:36:48;11.25;;;3.45;;
26191;SDS011;13935;55.672;37.764;2023-11-18T00:38:41;11.90;;;4.28;;
26191;SDS011;13935;55.672;37.764;2023-11-18T00:40:28;10.80;;;3.70;;
26191;SDS011;13935;55.672;37.764;2023-11-18T00:42:04;10.63;;;3.75;;
26191;SDS011;13935;55.672;37.764;2023-11-18T00:43:20;12.13;;;4.03;;
26191;SDS011;13935;55.672;37.764;2023-11-18T00:44:58;12.07;;;4.00;;
26191;SDS011;13935;55.672;37.764;2023-11-18T00:46:26;9.43;;;3.75;;
26191;SDS011;13935;55.672;37.764;2023-11-18T00:49:36;15.57;;;4.10;;
26191;SDS011;13935;55.672;37.764;2023-11-18T00:51:21;10.73;;;3.85;;
26191;SDS011;13935;55.672;37.764;2023-11-18T00:52:38;9.68;;;4.35;;
26191;SDS011;13935;55.672;37.764;2023-11-18T00:53:56;11.80;;;3.90;;
26191;SDS011;13935;55.672;37.764;2023-11-18T00:55:21;12.18;;;3.90;;
26191;SDS011;13935;55.672;37.764;2023-11-18T00:56:36;9.65;;;4.20;;
26191;SDS011;13935;55.672;37.764;2023-11-18T00:59:31;12.77;;;4.10;;
26191;SDS011;13935;55.672;37.764;2023-11-18T01:00:54;9.68;;;3.70;;
26191;SDS011;13935;55.672;37.764;2023-11-18T01:02:10;8.10;;;3.63;;
26191;SDS011;13935;55.672;37.764;2023-11-18T01:03:22;11.07;;;3.70;;
26191;SDS011;13935;55.672;37.764;2023-11-18T01:04:27;11.35;;;3.83;;
26191;SDS011;13935;55.672;37.764;2023-11-18T01:05:34;13.98;;;4.20;;
26191;SDS011;13935;55.672;37.764;2023-11-18T01:06:43;11.77;;;4.15;;
26191;SDS011;13935;55.672;37.764;2023-11-18T01:07:48;10.45;;;4.22;;
26191;SDS011;13935;55.672;37.764;2023-11-18T01:09:01;13.23;;;4.22;;
26191;SDS011;13935;55.672;37.764;2023-11-18T01:10:15;16.25;;;4.97;;
26191;SDS011;13935;55.672;37.764;2023-11-18T01:11:24;13.20;;;4.50;;
26191;SDS011;13935;55.672;37.764;2023-11-18T01:12:35;12.10;;;4.15;;
26191;SDS011;13935;55.672;37.764;2023-11-18T01:14:03;11.38;;;4.18;;
26191;SDS011;13935;55.672;37.764;2023-11-18T01:15:19;11.27;;;5.00;;
26191;SDS011;13935;55.672;37.764;2023-11-18T01:16:26;11.95;;;3.97;;
26191;SDS011;13935;55.672;37.764;2023-11-18T01:17:41;14.50;;;4.97;;
26191;SDS011;13935;55.672;37.764;2023-11-18T01:18:54;13.35;;;5.43;;
26191;SDS011;13935;55.672;37.764;2023-11-18T01:20:04;10.05;;;4.88;;
26191;SDS011;13935;55.672;37.764;2023-11-18T01:21:17;14.48;;;4.60;;
26191;SDS011;13935;55.672;37.764;2023-11-18T01:22:30;12.25;;;5.22;;
26191;SDS011;13935;55.672;37.764;2023-11-18T01:23:37;12.45;;;4.35;;
26191;SDS011;13935;55.672;37.764;2023-11-18T01:25:50;9.40;;;4.30;;
26191;SDS011;13935;55.672;37.764;2023-11-18T01:27:10;14.10;;;5.15;;
26191;SDS011;13935;55.672;37.764;2023-11-18T01:28:34;18.13;;;4.88;;
26191;SDS011;13935;55.672;37.764;2023-11-18T01:29:57;12.65;;;4.90;;
26191;SDS011;13935;55.672;37.764;2023-11-18T01:31:30;9.35;;;4.60;;
26191;SDS011;13935;55.672;37.764;2023-11-18T01:32:56;10.77;;;4.38;;
26191;SDS011;13935;55.672;37.764;2023-11-18T01:36:26;24.42;;;4.97;;
26191;SDS011;13935;55.672;37.764;2023-11-18T01:37:57;12.88;;;5.25;;
26191;SDS011;13935;55.672;37.764;2023-11-18T01:39:53;10.93;;;4.80;;
26191;SDS011;13935;55.672;37.764;2023-11-18T01:44:51;11.43;;;4.60;;
26191;SDS011;13935;55.672;37.764;2023-11-18T01:48:53;13.88;;;5.28;;
26191;SDS011;13935;55.672;37.764;2023-11-18T01:50:35;13.85;;;4.82;;
26191;SDS011;13935;55.672;37.764;2023-11-18T01:52:33;11.57;;;4.90;;
26191;SDS011;13935;55.672;37.764;2023-11-18T01:55:26;13.15;;;4.90;;
26191;SDS011;13935;55.672;37.764;2023-11-18T01:57:29;15.05;;;5.13;;
26191;SDS011;13935;55.672;37.764;2023-11-18T01:59:49;10.50;;;4.47;;
26191;SDS011;13935;55.672;37.764;2023-11-18T02:01:15;17.73;;;5.28;;
26191;SDS011;13935;55.672;37.764;2023-11-18T02:03:07;13.50;;;5.22;;
26191;SDS011;13935;55.672;37.764;2023-11-18T02:05:05;13.88;;;5.47;;
26191;SDS011;13935;55.672;37.764;2023-11-18T02:07:55;13.25;;;5.03;;
26191;SDS011;13935;55.672;37.764;2023-11-18T02:11:42;14.00;;;5.75;;
26191;SDS011;13935;55.672;37.764;2023-11-18T02:13:34;12.80;;;5.28;;
26191;SDS011;13935;55.672;37.764;2023-11-18T02:15:37;13.13;;;5.15;;
26191;SDS011;13935;55.672;37.764;2023-11-18T02:17:09;14.88;;;5.97;;
26191;SDS011;13935;55.672;37.764;2023-11-18T02:18:52;14.00;;;5.18;;
26191;SDS011;13935;55.672;37.764;2023-11-18T02:23:09;14.13;;;5.50;;
26191;SDS011;13935;55.672;37.764;2023-11-18T02:25:01;14.48;;;5.80;;
26191;SDS011;13935;55.672;37.764;2023-11-18T02:26:37;19.58;;;6.30;;
26191;SDS011;13935;55.672;37.764;2023-11-18T02:28:19;12.45;;;5.88;;
26191;SDS011;13935;55.672;37.764;2023-11-18T02:30:17;14.18;;;5.72;;
26191;SDS011;13935;55.672;37.764;2023-11-18T02:31:30;14.40;;;6.68;;
26191;SDS011;13935;55.672;37.764;2023-11-18T02:32:47;14.48;;;6.03;;
26191;SDS011;13935;55.672;37.764;2023-11-18T02:34:14;15.63;;;5.82;;
26191;SDS011;13935;55.672;37.764;2023-11-18T02:35:30;11.77;;;4.65;;
26191;SDS011;13935;55.672;37.764;2023-11-18T02:36:58;15.60;;;5.72;;
26191;SDS011;13935;55.672;37.764;2023-11-18T02:38:39;15.27;;;6.00;;
26191;SDS011;13935;55.672;37.764;2023-11-18T02:39:57;19.70;;;6.32;;
26191;SDS011;13935;55.672;37.764;2023-11-18T02:41:26;12.35;;;5.93;;
26191;SDS011;13935;55.672;37.764;2023-11-18T02:42:54;17.00;;;7.50;;
26191;SDS011;13935;55.672;37.764;2023-11-18T02:44:16;18.38;;;6.28;;
26191;SDS011;13935;55.672;37.764;2023-11-18T02:45:49;18.13;;;7.13;;
26191;SDS011;13935;55.672;37.764;2023-11-18T02:47:16;18.70;;;6.80;;
26191;SDS011;13935;55.672;37.764;2023-11-18T02:49:12;18.02;;;6.85;;
26191;SDS011;13935;55.672;37.764;2023-11-18T02:50:27;13.40;;;6.20;;
26191;SDS011;13935;55.672;37.764;2023-11-18T02:51:57;15.73;;;6.43;;
26191;SDS011;13935;55.672;37.764;2023-11-18T02:53:12;15.55;;;6.68;;
26191;SDS011;13935;55.672;37.764;2023-11-18T02:55:45;15.52;;;6.40;;
26191;SDS011;13935;55.672;37.764;2023-11-18T02:56:59;14.82;;;6.82;;
26191;SDS011;13935;55.672;37.764;2023-11-18T02:58:20;15.88;;;6.80;;
26191;SDS011;13935;55.672;37.764;2023-11-18T03:03:27;15.00;;;6.00;;
26191;SDS011;13935;55.672;37.764;2023-11-18T03:04:40;18.50;;;7.13;;
26191;SDS011;13935;55.672;37.764;2023-11-18T03:06:05;15.07;;;6.88;;
26191;SDS011;13935;55.672;37.764;2023-11-18T03:07:58;17.95;;;7.80;;
26191;SDS011;13935;55.672;37.764;2023-11-18T03:09:15;21.40;;;6.78;;
26191;SDS011;13935;55.672;37.764;2023-11-18T03:11:07;16.30;;;6.82;;
26191;SDS011;13935;55.672;37.764;2023-11-18T03:12:39;14.40;;;6.47;;
26191;SDS011;13935;55.672;37.764;2023-11-18T03:14:02;16.88;;;7.22;;
26191;SDS011;13935;55.672;37.764;2023-11-18T03:15:28;18.45;;;6.80;;
26191;SDS011;13935;55.672;37.764;2023-11-18T03:17:13;16.08;;;6.90;;
26191;SDS011;13935;55.672;37.764;2023-11-18T03:18:40;15.68;;;6.68;;
26191;SDS011;13935;55.672;37.764;2023-11-18T03:20:23;17.67;;;6.63;;
26191;SDS011;13935;55.672;37.764;2023-11-18T03:21:51;16.55;;;7.28;;
26191;SDS011;13935;55.672;37.764;2023-11-18T03:23:22;15.60;;;6.72;;
26191;SDS011;13935;55.672;37.764;2023-11-18T03:25:01;16.92;;;6.72;;
26191;SDS011;13935;55.672;37.764;2023-11-18T03:26:15;18.38;;;8.27;;
26191;SDS011;13935;55.672;37.764;2023-11-18T03:27:31;16.15;;;7.38;;
26191;SDS011;13935;55.672;37.764;2023-11-18T03:29:12;18.27;;;7.63;;
26191;SDS011;13935;55.672;37.764;2023-11-18T03:31:50;21.70;;;7.60;;
26191;SDS011;13935;55.672;37.764;2023-11-18T03:33:09;13.30;;;6.72;;
26191;SDS011;13935;55.672;37.764;2023-11-18T03:34:27;15.68;;;7.00;;
26191;SDS011;13935;55.672;37.764;2023-11-18T03:35:50;16.92;;;7.47;;
26191;SDS011;13935;55.672;37.764;2023-11-18T03:37:01;18.45;;;7.78;;
26191;SDS011;13935;55.672;37.764;2023-11-18T03:38:08;17.63;;;7.28;;
26191;SDS011;13935;55.672;37.764;2023-11-18T03:39:18;17.63;;;7.75;;
26191;SDS011;13935;55.672;37.764;2023-11-18T03:40:26;15.50;;;7.95;;
26191;SDS011;13935;55.672;37.764;2023-11-18T03:41:36;16.20;;;7.65;;
26191;SDS011;13935;55.672;37.764;2023-11-18T03:42:44;14.80;;;6.85;;
26191;SDS011;13935;55.672;37.764;2023-11-18T03:43:58;19.35;;;7.72;;
26191;SDS011;13935;55.672;37.764;2023-11-18T03:45:08;17.70;;;7.25;;
26191;SDS011;13935;55.672;37.764;2023-11-18T03:46:42;14.05;;;6.53;;
26191;SDS011;13935;55.672;37.764;2023-11-18T03:47:54;17.90;;;7.22;;
26191;SDS011;13935;55.672;37.764;2023-11-18T03:49:03;14.85;;;7.18;;
26191;SDS011;13935;55.672;37.764;2023-11-18T03:50:37;17.33;;;6.93;;
26191;SDS011;13935;55.672;37.764;2023-11-18T03:52:00;17.52;;;7.30;;
26191;SDS011;13935;55.672;37.764;2023-11-18T03:53:07;17.10;;;7.45;;
26191;SDS011;13935;55.672;37.764;2023-11-18T03:54:27;18.33;;;6.88;;
26191;SDS011;13935;55.672;37.764;2023-11-18T03:55:36;21.25;;;7.85;;
26191;SDS011;13935;55.672;37.764;2023-11-18T03:56:56;26.55;;;8.93;;
26191;SDS011;13935;55.672;37.764;2023-11-18T03:58:21;18.02;;;6.88;;
26191;SDS011;13935;55.672;37.764;2023-11-18T03:59:49;15.70;;;7.13;;
26191;SDS011;13935;55.672;37.764;2023-11-18T04:00:58;20.17;;;7.47;;
26191;SDS011;13935;55.672;37.764;2023-11-18T04:02:30;16.50;;;7.05;;
26191;SDS011;13935;55.672;37.764;2023-11-18T04:03:41;14.82;;;6.95;;
26191;SDS011;13935;55.672;37.764;2023-11-18T04:04:50;16.05;;;7.30;;
26191;SDS011;13935;55.672;37.764;2023-11-18T04:06:02;15.63;;;8.27;;
26191;SDS011;13935;55.672;37.764;2023-11-18T04:07:07;21.48;;;9.27;;
26191;SDS011;13935;55.672;37.764;2023-11-18T04:08:26;20.77;;;8.77;;
26191;SDS011;13935;55.672;37.764;2023-11-18T04:09:44;15.73;;;7.57;;
26191;SDS011;13935;55.672;37.764;2023-11-18T04:11:08;23.23;;;8.63;;
26191;SDS011;13935;55.672;37.764;2023-11-18T04:12:20;19.50;;;7.72;;
26191;SDS011;13935;55.672;37.764;2023-11-18T04:13:43;17.60;;;7.68;;
26191;SDS011;13935;55.672;37.764;2023-11-18T04:15:23;21.35;;;8.43;;
26191;SDS011;13935;55.672;37.764;2023-11-18T04:16:39;19.25;;;7.25;;
26191;SDS011;13935;55.672;37.764;2023-11-18T04:20:06;18.85;;;7.72;;
26191;SDS011;13935;55.672;37.764;2023-11-18T04:21:46;18.40;;;7.45;;
26191;SDS011;13935;55.672;37.764;2023-11-18T04:23:09;19.17;;;8.02;;
26191;SDS011;13935;55.672;37.764;2023-11-18T04:24:24;17.92;;;8.02;;
26191;SDS011;13935;55.672;37.764;2023-11-18T04:25:29;20.13;;;8.85;;
26191;SDS011;13935;55.672;37.764;2023-11-18T04:26:40;21.48;;;9.52;;
26191;SDS011;13935;55.672;37.764;2023-11-18T04:28:07;22.17;;;8.65;;
26191;SDS011;13935;55.672;37.764;2023-11-18T04:29:18;18.92;;;8.38;;
26191;SDS011;13935;55.672;37.764;2023-11-18T04:30:56;26.38;;;9.02;;
26191;SDS011;13935;55.672;37.764;2023-11-18T04:32:17;19.25;;;9.05;;
26191;SDS011;13935;55.672;37.764;2023-11-18T04:33:45;21.75;;;8.57;;
26191;SDS011;13935;55.672;37.764;2023-11-18T04:35:27;22.60;;;9.57;;
26191;SDS011;13935;55.672;37.764;2023-11-18T04:36:51;26.60;;;10.30;;
26191;SDS011;13935;55.672;37.764;2023-11-18T04:38:07;25.88;;;10.68;;
26191;SDS011;13935;55.672;37.764;2023-11-18T04:39:18;29.30;;;10.13;;
26191;SDS011;13935;55.672;37.764;2023-11-18T04:40:30;26.48;;;11.68;;
26191;SDS011;13935;55.672;37.764;2023-11-18T04:41:58;24.27;;;9.20;;
26191;SDS011;13935;55.672;37.764;2023-11-18T04:43:07;23.38;;;9.65;;
26191;SDS011;13935;55.672;37.764;2023-11-18T04:44:28;19.10;;;9.35;;
26191;SDS011;13935;55.672;37.764;2023-11-18T04:46:06;21.55;;;9.40;;
26191;SDS011;13935;55.672;37.764;2023-11-18T04:47:19;24.75;;;10.52;;
26191;SDS011;13935;55.672;37.764;2023-11-18T04:48:26;28.13;;;11.38;;
26191;SDS011;13935;55.672;37.764;2023-11-18T04:49:41;25.98;;;10.30;;
26191;SDS011;13935;55.672;37.764;2023-11-18T04:50:44;25.00;;;11.02;;
26191;SDS011;13935;55.672;37.764;2023-11-18T04:51:48;21.33;;;9.80;;
26191;SDS011;13935;55.672;37.764;2023-11-18T04:52:54;24.40;;;11.02;;
26191;SDS011;13935;55.672;37.764;2023-11-18T04:54:01;22.80;;;9.43;;
26191;SDS011;13935;55.672;37.764;2023-11-18T04:55:09;18.38;;;9.82;;
26191;SDS011;13935;55.672;37.764;2023-11-18T04:56:19;23.05;;;10.13;;
26191;SDS011;13935;55.672;37.764;2023-11-18T04:57:28;26.95;;;9.80;;
26191;SDS011;13935;55.672;37.764;2023-11-18T04:58:39;23.20;;;10.00;;
26191;SDS011;13935;55.672;37.764;2023-11-18T04:59:53;21.25;;;9.73;;
26191;SDS011;13935;55.672;37.764;2023-11-18T05:01:10;22.92;;;9.73;;
26191;SDS011;13935;55.672;37.764;2023-11-18T05:02:46;19.27;;;8.93;;
26191;SDS011;13935;55.672;37.764;2023-11-18T05:04:00;25.25;;;10.40;;
26191;SDS011;13935;55.672;37.764;2023-11-18T05:05:21;21.45;;;10.00;;
26191;SDS011;13935;55.672;37.764;2023-11-18T05:06:40;22.55;;;9.75;;
26191;SDS011;13935;55.672;37.764;2023-11-18T05:08:04;21.60;;;9.68;;
26191;SDS011;13935;55.672;37.764;2023-11-18T05:09:12;22.40;;;8.90;;
26191;SDS011;13935;55.672;37.764;2023-11-18T05:10:23;17.55;;;8.25;;
26191;SDS011;13935;55.672;37.764;2023-11-18T05:11:28;20.05;;;8.20;;
26191;SDS011;13935;55.672;37.764;2023-11-18T05:12:43;18.95;;;8.35;;
26191;SDS011;13935;55.672;37.764;2023-11-18T05:13:53;14.93;;;7.05;;
26191;SDS011;13935;55.672;37.764;2023-11-18T05:15:04;17.63;;;6.78;;
26191;SDS011;13935;55.672;37.764;2023-11-18T05:16:53;18.45;;;7.97;;
26191;SDS011;13935;55.672;37.764;2023-11-18T05:18:24;18.55;;;6.90;;
26191;SDS011;13935;55.672;37.764;2023-11-18T05:19:59;13.98;;;6.18;;
26191;SDS011;13935;55.672;37.764;2023-11-18T05:21:34;16.73;;;6.18;;
26191;SDS011;13935;55.672;37.764;2023-11-18T05:22:51;12.68;;;5.88;;
26191;SDS011;13935;55.672;37.764;2023-11-18T05:24:11;12.80;;;6.03;;
26191;SDS011;13935;55.672;37.764;2023-11-18T05:25:35;13.32;;;6.05;;
26191;SDS011;13935;55.672;37.764;2023-11-18T05:27:01;14.30;;;5.95;;
26191;SDS011;13935;55.672;37.764;2023-11-18T05:28:24;12.02;;;5.25;;
26191;SDS011;13935;55.672;37.764;2023-11-18T05:29:34;15.90;;;5.75;;
26191;SDS011;13935;55.672;37.764;2023-11-18T05:30:49;17.48;;;6.07;;
26191;SDS011;13935;55.672;37.764;2023-11-18T05:31:54;14.15;;;6.22;;
26191;SDS011;13935;55.672;37.764;2023-11-18T05:33:11;16.52;;;6.25;;
26191;SDS011;13935;55.672;37.764;2023-11-18T05:34:28;13.02;;;5.63;;
26191;SDS011;13935;55.672;37.764;2023-11-18T05:35:37;14.90;;;6.00;;
26191;SDS011;13935;55.672;37.764;2023-11-18T05:36:55;23.85;;;6.15;;
26191;SDS011;13935;55.672;37.764;2023-11-18T05:37:59;18.25;;;6.80;;
26191;SDS011;13935;55.672;37.764;2023-11-18T05:39:12;15.73;;;6.47;;
26191;SDS011;13935;55.672;37.764;2023-11-18T05:40:21;12.55;;;6.60;;
26191;SDS011;13935;55.672;37.764;2023-11-18T05:41:27;15.75;;;6.55;;
26191;SDS011;13935;55.672;37.764;2023-11-18T05:42:47;15.88;;;6.45;;
26191;SDS011;13935;55.672;37.764;2023-11-18T05:44:44;17.85;;;6.75;;
26191;SDS011;13935;55.672;37.764;2023-11-18T05:45:58;18.60;;;6.70;;
26191;SDS011;13935;55.672;37.764;2023-11-18T05:47:30;13.27;;;5.43;;
26191;SDS011;13935;55.672;37.764;2023-11-18T05:48:51;16.35;;;6.38;;
26191;SDS011;13935;55.672;37.764;2023-11-18T05:49:57;17.42;;;6.72;;
26191;SDS011;13935;55.672;37.764;2023-11-18T05:51:04;15.68;;;7.25;;
26191;SDS011;13935;55.672;37.764;2023-11-18T05:52:07;16.60;;;6.22;;
26191;SDS011;13935;55.672;37.764;2023-11-18T05:53:09;15.77;;;7.63;;
26191;SDS011;13935;55.672;37.764;2023-11-18T05:54:11;15.35;;;5.88;;
26191;SDS011;13935;55.672;37.764;2023-11-18T05:55:14;16.15;;;6.35;;
26191;SDS011;13935;55.672;37.764;2023-11-18T05:56:17;13.88;;;6.05;;
26191;SDS011;13935;55.672;37.764;2023-11-18T05:57:20;15.40;;;6.63;;
26191;SDS011;13935;55.672;37.764;2023-11-18T05:58:23;16.33;;;7.00;;
26191;SDS011;13935;55.672;37.764;2023-11-18T05:59:25;18.70;;;7.68;;
26191;SDS011;13935;55.672;37.764;2023-11-18T06:00:28;19.48;;;7.47;;
26191;SDS011;13935;55.672;37.764;2023-11-18T06:01:33;20.17;;;7.30;;
26191;SDS011;13935;55.672;37.764;2023-11-18T06:02:40;17.58;;;7.10;;
26191;SDS011;13935;55.672;37.764;2023-11-18T06:03:42;16.83;;;6.93;;
26191;SDS011;13935;55.672;37.764;2023-11-18T06:04:45;19.45;;;6.72;;
26191;SDS011;13935;55.672;37.764;2023-11-18T06:05:49;20.45;;;7.53;;
26191;SDS011;13935;55.672;37.764;2023-11-18T06:06:53;16.45;;;6.97;;
26191;SDS011;13935;55.672;37.764;2023-11-18T06:07:55;15.65;;;6.90;;
26191;SDS011;13935;55.672;37.764;2023-11-18T06:08:57;12.07;;;6.38;;
26191;SDS011;13935;55.672;37.764;2023-11-18T06:10:04;18.23;;;7.03;;
26191;SDS011;13935;55.672;37.764;2023-11-18T06:11:09;23.75;;;8.90;;
26191;SDS011;13935;55.672;37.764;2023-11-18T06:12:18;18.10;;;6.20;;
26191;SDS011;13935;55.672;37.764;2023-11-18T06:13:20;13.30;;;5.88;;
26191;SDS011;13935;55.672;37.764;2023-11-18T06:14:22;12.63;;;6.13;;
26191;SDS011;13935;55.672;37.764;2023-11-18T06:15:24;19.50;;;6.97;;
26191;SDS011;13935;55.672;37.764;2023-11-18T06:16:26;13.52;;;5.45;;
26191;SDS011;13935;55.672;37.764;2023-11-18T06:17:32;17.38;;;6.10;;
26191;SDS011;13935;55.672;37.764;2023-11-18T06:18:36;15.23;;;6.88;;
26191;SDS011;13935;55.672;37.764;2023-11-18T06:19:39;11.90;;;5.80;;
26191;SDS011;13935;55.672;37.764;2023-11-18T06:20:41;15.75;;;5.93;;
26191;SDS011;13935;55.672;37.764;2023-11-18T06:21:44;14.00;;;6.10;;
26191;SDS011;13935;55.672;37.764;2023-11-18T06:22:46;16.77;;;6.10;;
26191;SDS011;13935;55.672;37.764;2023-11-18T06:23:48;16.42;;;6.47;;
26191;SDS011;13935;55.672;37.764;2023-11-18T06:24:51;13.95;;;5.70;;
26191;SDS011;13935;55.672;37.764;2023-11-18T06:25:54;14.43;;;5.72;;
26191;SDS011;13935;55.672;37.764;2023-11-18T06:26:56;19.13;;;6.10;;
26191;SDS011;13935;55.672;37.764;2023-11-18T06:27:59;11.77;;;5.82;;
26191;SDS011;13935;55.672;37.764;2023-11-18T06:29:01;11.35;;;5.97;;
26191;SDS011;13935;55.672;37.764;2023-11-18T06:30:03;13.75;;;5.78;;
26191;SDS011;13935;55.672;37.764;2023-11-18T06:31:08;14.77;;;6.07;;
26191;SDS011;13935;55.672;37.764;2023-11-18T06:32:10;16.20;;;7.00;;
26191;SDS011;13935;55.672;37.764;2023-11-18T06:33:14;17.52;;;6.60;;
26191;SDS011;13935;55.672;37.764;2023-11-18T06:34:16;16.27;;;6.88;;
26191;SDS011;13935;55.672;37.764;2023-11-18T06:35:20;16.65;;;7.20;;
26191;SDS011;13935;55.672;37.764;2023-11-18T06:36:23;14.07;;;6.65;;
26191;SDS011;13935;55.672;37.764;2023-11-18T06:37:32;17.85;;;7.78;;
26191;SDS011;13935;55.672;37.764;2023-11-18T06:38:36;18.57;;;7.20;;
26191;SDS011;13935;55.672;37.764;2023-11-18T06:39:42;19.20;;;7.25;;
26191;SDS011;13935;55.672;37.764;2023-11-18T06:40:47;20.08;;;7.65;;
26191;SDS011;13935;55.672;37.764;2023-11-18T06:41:55;19.30;;;8.40;;
26191;SDS011;13935;55.672;37.764;2023-11-18T06:43:00;20.55;;;8.50;;
26191;SDS011;13935;55.672;37.764;2023-11-18T06:44:04;21.92;;;9.20;;
26191;SDS011;13935;55.672;37.764;2023-11-18T06:45:15;18.52;;;7.35;;
26191;SDS011;13935;55.672;37.764;2023-11-18T06:46:18;19.55;;;8.13;;
26191;SDS011;13935;55.672;37.764;2023-11-18T06:47:23;20.23;;;7.47;;
26191;SDS011;13935;55.672;37.764;2023-11-18T06:48:26;19.45;;;7.85;;
26191;SDS011;13935;55.672;37.764;2023-11-18T06:49:28;20.52;;;7.95;;
26191;SDS011;13935;55.672;37.764;2023-11-18T06:50:31;23.13;;;8.45;;
26191;SDS011;13935;55.672;37.764;2023-11-18T06:51:35;17.55;;;7.53;;
26191;SDS011;13935;55.672;37.764;2023-11-18T06:52:40;15.00;;;7.18;;
26191;SDS011;13935;55.672;37.764;2023-11-18T06:54:08;17.48;;;7.70;;
26191;SDS011;13935;55.672;37.764;2023-11-18T06:55:14;17.17;;;7.72;;
26191;SDS011;13935;55.672;37.764;2023-11-18T06:57:39;17.40;;;7.45;;
26191;SDS011;13935;55.672;37.764;2023-11-18T06:58:58;17.38;;;7.20;;
26191;SDS011;13935;55.672;37.764;2023-11-18T07:00:50;15.60;;;7.18;;
26191;SDS011;13935;55.672;37.764;2023-11-18T07:02:44;13.43;;;6.70;;
26191;SDS011;13935;55.672;37.764;2023-11-18T07:04:06;15.32;;;6.90;;
26191;SDS011;13935;55.672;37.764;2023-11-18T07:05:56;15.82;;;7.30;;
26191;SDS011;13935;55.672;37.764;2023-11-18T07:06:58;17.95;;;6.95;;
26191;SDS011;13935;55.672;37.764;2023-11-18T07:08:01;19.85;;;7.60;;
26191;SDS011;13935;55.672;37.764;2023-11-18T07:09:08;15.63;;;8.13;;
26191;SDS011;13935;55.672;37.764;2023-11-18T07:10:24;17.92;;;7.65;;
26191;SDS011;13935;55.672;37.764;2023-11-18T07:11:30;24.92;;;8.80;;
26191;SDS011;13935;55.672;37.764;2023-11-18T07:12:37;17.50;;;8.45;;
26191;SDS011;13935;55.672;37.764;2023-11-18T07:13:44;17.27;;;8.63;;
26191;SDS011;13935;55.672;37.764;2023-11-18T07:14:51;15.10;;;7.72;;
26191;SDS011;13935;55.672;37.764;2023-11-18T07:15:55;17.83;;;8.13;;
26191;SDS011;13935;55.672;37.764;2023-11-18T07:16:59;18.83;;;7.85;;
26191;SDS011;13935;55.672;37.764;2023-11-18T07:18:05;15.10;;;8.18;;
26191;SDS011;13935;55.672;37.764;2023-11-18T07:19:11;15.18;;;8.02;;
26191;SDS011;13935;55.672;37.764;2023-11-18T07:20:29;17.23;;;7.47;;
26191;SDS011;13935;55.672;37.764;2023-11-18T07:21:36;13.00;;;6.97;;
26191;SDS011;13935;55.672;37.764;2023-11-18T07:22:43;13.55;;;7.68;;
26191;SDS011;13935;55.672;37.764;2023-11-18T07:24:16;15.18;;;7.78;;
26191;SDS011;13935;55.672;37.764;2023-11-18T07:25:29;12.93;;;6.75;;
26191;SDS011;13935;55.672;37.764;2023-11-18T07:26:35;19.58;;;8.15;;
26191;SDS011;13935;55.672;37.764;2023-11-18T07:27:40;18.55;;;8.30;;
26191;SDS011;13935;55.672;37.764;2023-11-18T07:28:44;15.10;;;7.57;;
26191;SDS011;13935;55.672;37.764;2023-11-18T07:29:51;19.52;;;7.95;;
26191;SDS011;13935;55.672;37.764;2023-11-18T07:30:54;14.50;;;8.10;;
26191;SDS011;13935;55.672;37.764;2023-11-18T07:32:03;13.10;;;7.80;;
26191;SDS011;13935;55.672;37.764;2023-11-18T07:33:07;16.52;;;8.90;;
26191;SDS011;13935;55.672;37.764;2023-11-18T07:34:10;16.80;;;8.32;;
26191;SDS011;13935;55.672;37.764;2023-11-18T07:35:50;16.65;;;8.00;;
26191;SDS011;13935;55.672;37.764;2023-11-18T07:37:26;17.98;;;8.35;;
26191;SDS011;13935;55.672;37.764;2023-11-18T07:38:35;15.48;;;7.90;;
26191;SDS011;13935;55.672;37.764;2023-11-18T07:39:39;13.93;;;7.35;;
26191;SDS011;13935;55.672;37.764;2023-11-18T07:40:51;14.27;;;7.90;;
26191;SDS011;13935;55.672;37.764;2023-11-18T07:41:58;18.77;;;8.40;;
26191;SDS011;13935;55.672;37.764;2023-11-18T07:43:03;12.30;;;7.78;;
26191;SDS011;13935;55.672;37.764;2023-11-18T07:44:09;13.10;;;7.30;;
26191;SDS011;13935;55.672;37.764;2023-11-18T07:45:20;16.90;;;7.65;;
26191;SDS011;13935;55.672;37.764;2023-11-18T07:46:25;14.00;;;8.80;;
26191;SDS011;13935;55.672;37.764;2023-11-18T07:47:32;15.32;;;7.55;;
26191;SDS011;13935;55.672;37.764;2023-11-18T07:48:37;17.08;;;8.63;;
26191;SDS011;13935;55.672;37.764;2023-11-18T07:49:44;13.93;;;8.27;;
26191;SDS011;13935;55.672;37.764;2023-11-18T07:50:47;17.20;;;8.15;;
26191;SDS011;13935;55.672;37.764;2023-11-18T07:51:50;17.05;;;8.82;;
26191;SDS011;13935;55.672;37.764;2023-11-18T07:52:53;14.55;;;8.45;;
26191;SDS011;13935;55.672;37.764;2023-11-18T07:53:57;19.52;;;8.55;;
26191;SDS011;13935;55.672;37.764;2023-11-18T07:55:00;17.33;;;8.60;;
26191;SDS011;13935;55.672;37.764;2023-11-18T07:56:08;17.92;;;8.68;;
26191;SDS011;13935;55.672;37.764;2023-11-18T07:57:14;15.98;;;8.15;;
26191;SDS011;13935;55.672;37.764;2023-11-18T07:58:18;18.15;;;8.77;;
26191;SDS011;13935;55.672;37.764;2023-11-18T07:59:24;18.15;;;8.65;;
26191;SDS011;13935;55.672;37.764;2023-11-18T08:00:58;14.38;;;8.02;;
26191;SDS011;13935;55.672;37.764;2023-11-18T08:02:02;14.25;;;9.27;;
26191;SDS011;13935;55.672;37.764;2023-11-18T08:03:24;12.68;;;7.60;;
26191;SDS011;13935;55.672;37.764;2023-11-18T08:04:43;15.90;;;8.35;;